createdAt,value
2022-12-24T00:00:29.048Z,1003.28
2022-12-24T00:01:29.035Z,1003.23
2022-12-24T00:02:29.211Z,1003.32
2022-12-24T00:03:29.231Z,1003.30
2022-12-24T00:04:29.021Z,1003.37
2022-12-24T00:05:29.027Z,1003.42
2022-12-24T00:06:29.014Z,1003.39
2022-12-24T00:07:29.023Z,1003.40
2022-12-24T00:08:29.012Z,1003.38
2022-12-24T00:09:29.008Z,1003.43
2022-12-24T00:10:28.995Z,1003.40
2022-12-24T00:11:28.984Z,1003.41
2022-12-24T00:12:28.981Z,1003.37
2022-12-24T00:13:28.990Z,1003.41
2022-12-24T00:14:28.996Z,1003.41
2022-12-24T00:15:28.983Z,1003.50
2022-12-24T00:16:29.038Z,1003.45
2022-12-24T00:17:28.962Z,1003.51
2022-12-24T00:18:28.959Z,1003.52
2022-12-24T00:19:28.964Z,1003.60
2022-12-24T00:20:28.969Z,1003.47
2022-12-24T00:21:28.989Z,1003.52
2022-12-24T00:22:28.946Z,1003.55
2022-12-24T00:23:28.954Z,1003.63
2022-12-24T00:24:28.943Z,1003.59
2022-12-24T00:25:28.945Z,1003.64
2022-12-24T00:26:28.932Z,1003.66
2022-12-24T00:27:28.924Z,1003.60
2022-12-24T00:28:28.917Z,1003.63
2022-12-24T00:29:28.916Z,1003.58
2022-12-24T00:30:28.937Z,1003.56
2022-12-24T00:31:28.962Z,1003.57
2022-12-24T00:32:28.930Z,1003.54
2022-12-24T00:33:29.136Z,1003.57
2022-12-24T00:34:28.929Z,1003.56
2022-12-24T00:35:28.918Z,1003.53
2022-12-24T00:36:28.892Z,1003.55
2022-12-24T00:37:28.947Z,1003.58
2022-12-24T00:38:28.880Z,1003.55
2022-12-24T00:39:28.883Z,1003.49
2022-12-24T00:40:28.888Z,1003.48
2022-12-24T00:41:29.300Z,1003.43
2022-12-24T00:42:28.866Z,1003.46
2022-12-24T00:43:28.871Z,1003.43
2022-12-24T00:44:28.870Z,1003.41
2022-12-24T00:45:28.865Z,1003.47
2022-12-24T00:46:28.957Z,1003.50
2022-12-24T00:47:28.852Z,1003.40
2022-12-24T00:48:28.843Z,1003.47
2022-12-24T00:49:28.845Z,1003.53
2022-12-24T00:50:28.893Z,1003.49
2022-12-24T00:51:28.947Z,1003.57
2022-12-24T00:52:28.835Z,1003.60
2022-12-24T00:53:28.903Z,1003.63
2022-12-24T00:54:28.821Z,1003.67
2022-12-24T00:55:28.821Z,1003.66
2022-12-24T00:56:28.856Z,1003.70
2022-12-24T00:57:28.829Z,1003.63
2022-12-24T00:58:28.807Z,1003.63
2022-12-24T00:59:28.810Z,1003.65
2022-12-24T01:00:28.802Z,1003.69
2022-12-24T01:01:28.935Z,1003.64
2022-12-24T01:02:29.030Z,1003.60
2022-12-24T01:03:28.840Z,1003.72
2022-12-24T01:04:28.785Z,1003.67
2022-12-24T01:05:28.805Z,1003.71
2022-12-24T01:06:28.786Z,1003.72
2022-12-24T01:07:28.777Z,1003.74
2022-12-24T01:08:28.781Z,1003.76
2022-12-24T01:09:28.800Z,1003.67
2022-12-24T01:10:28.766Z,1003.74
2022-12-24T01:11:28.790Z,1003.75
2022-12-24T01:12:28.755Z,1003.82
2022-12-24T01:13:28.780Z,1003.82
2022-12-24T01:14:28.750Z,1003.83
2022-12-24T01:15:28.781Z,1003.81
2022-12-24T01:16:28.782Z,1003.84
2022-12-24T01:17:28.745Z,1003.93
2022-12-24T01:18:28.748Z,1003.90
2022-12-24T01:19:28.746Z,1003.95
2022-12-24T01:20:28.759Z,1003.99
2022-12-24T01:21:28.743Z,1003.96
2022-12-24T01:22:28.724Z,1004.03
2022-12-24T01:23:28.741Z,1004.00
2022-12-24T01:24:28.727Z,1004.00
2022-12-24T01:25:28.748Z,1004.11
2022-12-24T01:26:28.716Z,1004.05
2022-12-24T01:27:28.725Z,1004.03
2022-12-24T01:28:28.708Z,1004.06
2022-12-24T01:29:28.718Z,1004.13
2022-12-24T01:30:28.700Z,1004.06
2022-12-24T01:31:28.758Z,1004.05
2022-12-24T01:32:28.697Z,1004.06
2022-12-24T01:33:28.693Z,1004.08
2022-12-24T01:34:28.671Z,1004.06
2022-12-24T01:35:28.687Z,1004.09
2022-12-24T01:36:28.670Z,1004.13
2022-12-24T01:37:28.682Z,1004.17
2022-12-24T01:38:28.673Z,1004.16
2022-12-24T01:39:28.679Z,1004.17
2022-12-24T01:40:28.670Z,1004.27
2022-12-24T01:41:28.694Z,1004.27
2022-12-24T01:42:28.659Z,1004.30
2022-12-24T01:43:28.671Z,1004.24
2022-12-24T01:44:35.786Z,1004.26
2022-12-24T01:45:28.649Z,1004.25
2022-12-24T01:46:28.716Z,1004.24
2022-12-24T01:47:28.644Z,1004.28
2022-12-24T01:48:28.640Z,1004.17
2022-12-24T01:49:28.639Z,1004.26
2022-12-24T01:50:28.626Z,1004.20
2022-12-24T01:51:28.616Z,1004.25
2022-12-24T01:52:28.625Z,1004.32
2022-12-24T01:53:28.624Z,1004.34
2022-12-24T01:54:28.628Z,1004.25
2022-12-24T01:55:28.605Z,1004.29
2022-12-24T01:56:28.591Z,1004.23
2022-12-24T01:57:28.656Z,1004.31
2022-12-24T01:58:28.597Z,1004.23
2022-12-24T01:59:28.603Z,1004.27
2022-12-24T02:00:28.596Z,1004.28
2022-12-24T02:01:28.685Z,1004.33
2022-12-24T02:02:28.745Z,1004.34
2022-12-24T02:03:28.692Z,1004.45
2022-12-24T02:04:28.584Z,1004.36
2022-12-24T02:05:28.599Z,1004.46
2022-12-24T02:06:28.566Z,1004.41
2022-12-24T02:07:28.571Z,1004.44
2022-12-24T02:08:28.547Z,1004.42
2022-12-24T02:09:28.560Z,1004.48
2022-12-24T02:10:28.552Z,1004.49
2022-12-24T02:11:28.538Z,1004.50
2022-12-24T02:12:28.546Z,1004.48
2022-12-24T02:13:28.562Z,1004.55
2022-12-24T02:14:28.550Z,1004.47
2022-12-24T02:15:28.524Z,1004.56
2022-12-24T02:16:28.682Z,1004.58
2022-12-24T02:17:28.530Z,1004.54
2022-12-24T02:18:28.511Z,1004.55
2022-12-24T02:19:28.508Z,1004.54
2022-12-24T02:20:28.502Z,1004.62
2022-12-24T02:21:28.513Z,1004.56
2022-12-24T02:22:28.510Z,1004.63
2022-12-24T02:23:28.511Z,1004.58
2022-12-24T02:24:28.485Z,1004.61
2022-12-24T02:25:28.504Z,1004.63
2022-12-24T02:26:28.507Z,1004.65
2022-12-24T02:27:28.491Z,1004.62
2022-12-24T02:28:28.490Z,1004.70
2022-12-24T02:29:28.537Z,1004.60
2022-12-24T02:30:28.465Z,1004.66
2022-12-24T02:31:28.517Z,1004.65
2022-12-24T02:32:28.463Z,1004.71
2022-12-24T02:33:28.478Z,1004.65
2022-12-24T02:34:28.460Z,1004.70
2022-12-24T02:35:28.452Z,1004.75
2022-12-24T02:36:28.459Z,1004.68
2022-12-24T02:37:28.457Z,1004.73
2022-12-24T02:38:28.462Z,1004.78
2022-12-24T02:39:28.433Z,1004.77
2022-12-24T02:40:28.440Z,1004.80
2022-12-24T02:41:28.432Z,1004.83
2022-12-24T02:42:28.432Z,1004.82
2022-12-24T02:43:28.450Z,1004.84
2022-12-24T02:44:28.411Z,1004.82
2022-12-24T02:45:28.436Z,1004.83
2022-12-24T02:46:28.457Z,1004.85
2022-12-24T02:47:28.421Z,1004.92
2022-12-24T02:48:28.413Z,1004.92
2022-12-24T02:49:28.404Z,1004.95
2022-12-24T02:50:28.394Z,1004.97
2022-12-24T02:51:28.391Z,1005.00
2022-12-24T02:52:28.408Z,1004.92
2022-12-24T02:53:28.409Z,1005.01
2022-12-24T02:54:28.392Z,1005.03
2022-12-24T02:55:28.376Z,1005.02
2022-12-24T02:56:28.380Z,1005.03
2022-12-24T02:57:28.389Z,1005.02
2022-12-24T02:58:28.371Z,1005.02
2022-12-24T02:59:28.358Z,1005.00
2022-12-24T03:00:28.369Z,1005.05
2022-12-24T03:01:28.464Z,1005.00
2022-12-24T03:02:28.475Z,1005.02
2022-12-24T03:03:28.360Z,1005.05
2022-12-24T03:04:28.351Z,1005.06
2022-12-24T03:05:28.348Z,1005.01
2022-12-24T03:06:28.341Z,1005.06
2022-12-24T03:07:28.347Z,1005.03
2022-12-24T03:08:28.333Z,1005.01
2022-12-24T03:09:28.360Z,1005.04
2022-12-24T03:10:28.315Z,1005.02
2022-12-24T03:11:28.331Z,1005.01
2022-12-24T03:12:28.333Z,1005.00
2022-12-24T03:13:28.307Z,1005.01
2022-12-24T03:14:28.309Z,1005.05
2022-12-24T03:15:28.321Z,1005.06
2022-12-24T03:16:28.409Z,1005.03
2022-12-24T03:17:28.360Z,1005.03
2022-12-24T03:18:28.283Z,1005.08
2022-12-24T03:19:28.291Z,1005.06
2022-12-24T03:20:28.280Z,1005.04
2022-12-24T03:21:28.277Z,1005.06
2022-12-24T03:22:28.305Z,1005.09
2022-12-24T03:23:28.290Z,1005.11
2022-12-24T03:24:28.266Z,1005.09
2022-12-24T03:25:28.272Z,1005.09
2022-12-24T03:26:28.276Z,1005.18
2022-12-24T03:27:28.276Z,1005.15
2022-12-24T03:28:28.252Z,1005.10
2022-12-24T03:29:28.267Z,1005.26
2022-12-24T03:30:28.247Z,1005.20
2022-12-24T03:31:28.282Z,1005.23
2022-12-24T03:32:28.250Z,1005.29
2022-12-24T03:33:28.258Z,1005.30
2022-12-24T03:34:28.254Z,1005.29
2022-12-24T03:35:28.237Z,1005.26
2022-12-24T03:36:28.222Z,1005.30
2022-12-24T03:37:28.218Z,1005.33
2022-12-24T03:38:28.213Z,1005.28
2022-12-24T03:39:28.209Z,1005.36
2022-12-24T03:40:28.218Z,1005.40
2022-12-24T03:41:28.223Z,1005.39
2022-12-24T03:42:28.213Z,1005.41
2022-12-24T03:43:28.205Z,1005.41
2022-12-24T03:44:28.197Z,1005.44
2022-12-24T03:45:28.238Z,1005.36
2022-12-24T03:46:28.303Z,1005.45
2022-12-24T03:47:28.177Z,1005.37
2022-12-24T03:48:32.760Z,1005.38
2022-12-24T03:49:28.203Z,1005.37
2022-12-24T03:50:28.165Z,1005.41
2022-12-24T03:51:28.162Z,1005.42
2022-12-24T03:52:28.155Z,1005.40
2022-12-24T03:53:28.173Z,1005.38
2022-12-24T03:54:28.167Z,1005.39
2022-12-24T03:55:28.156Z,1005.32
2022-12-24T03:56:28.181Z,1005.37
2022-12-24T03:57:28.135Z,1005.36
2022-12-24T03:58:28.140Z,1005.34
2022-12-24T03:59:28.152Z,1005.31
2022-12-24T04:00:28.133Z,1005.34
2022-12-24T04:01:28.344Z,1005.35
2022-12-24T04:02:28.445Z,1005.37
2022-12-24T04:03:28.222Z,1005.39
2022-12-24T04:04:28.129Z,1005.42
2022-12-24T04:05:28.134Z,1005.39
2022-12-24T04:06:28.109Z,1005.41
2022-12-24T04:07:28.100Z,1005.41
2022-12-24T04:08:28.101Z,1005.40
2022-12-24T04:09:28.097Z,1005.47
2022-12-24T04:10:28.112Z,1005.43
2022-12-24T04:11:28.098Z,1005.43
2022-12-24T04:12:28.086Z,1005.51
2022-12-24T04:13:28.101Z,1005.42
2022-12-24T04:14:28.088Z,1005.49
2022-12-24T04:15:28.113Z,1005.48
2022-12-24T04:16:28.104Z,1005.52
2022-12-24T04:17:28.061Z,1005.48
2022-12-24T04:18:28.094Z,1005.44
2022-12-24T04:19:28.100Z,1005.48
2022-12-24T04:20:28.074Z,1005.51
2022-12-24T04:21:28.079Z,1005.57
2022-12-24T04:22:28.072Z,1005.54
2022-12-24T04:23:28.043Z,1005.53
2022-12-24T04:24:28.067Z,1005.51
2022-12-24T04:25:28.039Z,1005.53
2022-12-24T04:26:28.051Z,1005.54
2022-12-24T04:27:30.555Z,1005.58
2022-12-24T04:28:28.027Z,1005.60
2022-12-24T04:29:28.018Z,1005.68
2022-12-24T04:30:28.033Z,1005.72
2022-12-24T04:31:28.102Z,1005.76
2022-12-24T04:32:28.015Z,1005.77
2022-12-24T04:33:28.026Z,1005.70
2022-12-24T04:34:28.002Z,1005.71
2022-12-24T04:35:27.993Z,1005.70
2022-12-24T04:36:28.003Z,1005.68
2022-12-24T04:37:28.037Z,1005.71
2022-12-24T04:38:28.009Z,1005.69
2022-12-24T04:39:27.981Z,1005.80
2022-12-24T04:40:27.992Z,1005.82
2022-12-24T04:41:27.991Z,1005.82
2022-12-24T04:42:27.980Z,1005.82
2022-12-24T04:43:27.996Z,1005.85
2022-12-24T04:44:27.985Z,1005.85
2022-12-24T04:45:27.967Z,1005.91
2022-12-24T04:46:28.027Z,1005.94
2022-12-24T04:47:27.969Z,1005.95
2022-12-24T04:48:27.967Z,1005.95
2022-12-24T04:49:27.942Z,1005.96
2022-12-24T04:50:27.945Z,1005.90
2022-12-24T04:51:27.944Z,1005.92
2022-12-24T04:52:27.945Z,1005.98
2022-12-24T04:53:27.952Z,1005.96
2022-12-24T04:54:27.965Z,1006.02
2022-12-24T04:55:27.918Z,1005.99
2022-12-24T04:56:27.946Z,1006.03
2022-12-24T04:57:27.911Z,1006.04
2022-12-24T04:58:27.914Z,1005.98
2022-12-24T04:59:27.932Z,1005.97
2022-12-24T05:00:27.904Z,1005.97
2022-12-24T05:01:28.013Z,1005.91
2022-12-24T05:02:28.071Z,1005.94
2022-12-24T05:03:27.993Z,1005.87
2022-12-24T05:04:27.890Z,1005.85
2022-12-24T05:05:27.884Z,1005.82
2022-12-24T05:06:27.895Z,1005.83
2022-12-24T05:07:27.873Z,1005.87
2022-12-24T05:08:27.894Z,1005.88
2022-12-24T05:09:27.911Z,1005.89
2022-12-24T05:10:27.875Z,1005.95
2022-12-24T05:11:27.864Z,1005.94
2022-12-24T05:12:27.864Z,1005.98
2022-12-24T05:13:34.376Z,1005.98
2022-12-24T05:14:27.869Z,1005.98
2022-12-24T05:15:27.848Z,1005.95
2022-12-24T05:16:27.946Z,1006.02
2022-12-24T05:17:27.850Z,1006.05
2022-12-24T05:18:27.855Z,1006.03
2022-12-24T05:19:27.834Z,1006.02
2022-12-24T05:20:27.831Z,1006.02
2022-12-24T05:21:27.854Z,1006.10
2022-12-24T05:22:27.838Z,1006.09
2022-12-24T05:23:27.819Z,1006.06
2022-12-24T05:24:27.831Z,1006.05
2022-12-24T05:25:27.841Z,1006.02
2022-12-24T05:26:27.817Z,1006.03
2022-12-24T05:27:27.816Z,1005.98
2022-12-24T05:28:27.804Z,1006.02
2022-12-24T05:29:27.798Z,1006.09
2022-12-24T05:30:27.841Z,1006.11
2022-12-24T05:31:27.819Z,1006.09
2022-12-24T05:32:27.803Z,1006.12
2022-12-24T05:33:27.792Z,1006.19
2022-12-24T05:34:27.792Z,1006.11
2022-12-24T05:35:27.811Z,1006.15
2022-12-24T05:36:27.788Z,1006.11
2022-12-24T05:37:27.777Z,1006.08
2022-12-24T05:38:27.777Z,1006.10
2022-12-24T05:39:27.765Z,1006.12
2022-12-24T05:40:27.777Z,1006.11
2022-12-24T05:41:27.778Z,1006.16
2022-12-24T05:42:27.772Z,1006.17
2022-12-24T05:43:27.742Z,1006.17
2022-12-24T05:44:27.752Z,1006.18
2022-12-24T05:45:27.743Z,1006.17
2022-12-24T05:46:27.825Z,1006.19
2022-12-24T05:47:27.735Z,1006.20
2022-12-24T05:48:27.744Z,1006.21
2022-12-24T05:49:27.730Z,1006.20
2022-12-24T05:50:27.734Z,1006.23
2022-12-24T05:51:27.723Z,1006.27
2022-12-24T05:52:27.722Z,1006.29
2022-12-24T05:53:27.725Z,1006.29
2022-12-24T05:54:27.709Z,1006.28
2022-12-24T05:55:27.695Z,1006.28
2022-12-24T05:56:27.720Z,1006.30
2022-12-24T05:57:27.708Z,1006.34
2022-12-24T05:58:27.729Z,1006.34
2022-12-24T05:59:27.698Z,1006.38
2022-12-24T06:00:27.700Z,1006.33
2022-12-24T06:01:27.791Z,1006.34
2022-12-24T06:02:27.705Z,1006.33
2022-12-24T06:03:27.672Z,1006.33
2022-12-24T06:04:29.311Z,1006.33
2022-12-24T06:05:27.657Z,1006.33
2022-12-24T06:06:27.661Z,1006.41
2022-12-24T06:07:27.662Z,1006.39
2022-12-24T06:08:27.650Z,1006.39
2022-12-24T06:09:27.663Z,1006.40
2022-12-24T06:10:27.660Z,1006.42
2022-12-24T06:11:27.644Z,1006.35
2022-12-24T06:12:27.648Z,1006.31
2022-12-24T06:13:27.666Z,1006.30
2022-12-24T06:14:27.640Z,1006.28
2022-12-24T06:15:27.625Z,1006.25
2022-12-24T06:16:27.871Z,1006.33
2022-12-24T06:17:27.622Z,1006.36
2022-12-24T06:18:27.611Z,1006.42
2022-12-24T06:19:27.614Z,1006.49
2022-12-24T06:20:27.602Z,1006.42
2022-12-24T06:21:27.596Z,1006.46
2022-12-24T06:22:27.619Z,1006.45
2022-12-24T06:23:27.608Z,1006.49
2022-12-24T06:24:27.607Z,1006.51
2022-12-24T06:25:27.602Z,1006.50
2022-12-24T06:26:27.598Z,1006.49
2022-12-24T06:27:27.583Z,1006.47
2022-12-24T06:28:27.573Z,1006.52
2022-12-24T06:29:27.641Z,1006.50
2022-12-24T06:30:27.565Z,1006.51
2022-12-24T06:31:27.647Z,1006.51
2022-12-24T06:32:27.576Z,1006.61
2022-12-24T06:33:27.553Z,1006.55
2022-12-24T06:34:27.561Z,1006.58
2022-12-24T06:35:27.543Z,1006.53
2022-12-24T06:36:27.615Z,1006.56
2022-12-24T06:37:27.531Z,1006.62
2022-12-24T06:38:27.537Z,1006.56
2022-12-24T06:39:27.545Z,1006.59
2022-12-24T06:40:27.539Z,1006.59
2022-12-24T06:41:27.530Z,1006.58
2022-12-24T06:42:27.533Z,1006.61
2022-12-24T06:43:27.509Z,1006.60
2022-12-24T06:44:27.529Z,1006.63
2022-12-24T06:45:27.533Z,1006.65
2022-12-24T06:46:27.575Z,1006.69
2022-12-24T06:47:27.521Z,1006.73
2022-12-24T06:48:27.498Z,1006.70
2022-12-24T06:49:27.509Z,1006.69
2022-12-24T06:50:27.490Z,1006.70
2022-12-24T06:51:27.480Z,1006.78
2022-12-24T06:52:27.480Z,1006.82
2022-12-24T06:53:27.491Z,1006.85
2022-12-24T06:54:27.486Z,1006.84
2022-12-24T06:55:27.488Z,1006.82
2022-12-24T06:56:27.468Z,1006.84
2022-12-24T06:57:27.470Z,1006.89
2022-12-24T06:58:27.462Z,1006.89
2022-12-24T06:59:27.464Z,1006.92
2022-12-24T07:00:27.466Z,1006.92
2022-12-24T07:01:27.611Z,1006.97
2022-12-24T07:02:27.632Z,1006.96
2022-12-24T07:03:27.475Z,1006.98
2022-12-24T07:04:27.512Z,1006.94
2022-12-24T07:05:27.428Z,1006.94
2022-12-24T07:06:27.467Z,1006.95
2022-12-24T07:07:27.426Z,1006.95
2022-12-24T07:08:27.427Z,1007.00
2022-12-24T07:09:27.408Z,1007.03
2022-12-24T07:10:27.429Z,1007.04
2022-12-24T07:11:27.402Z,1007.05
2022-12-24T07:12:27.402Z,1007.00
2022-12-24T07:13:27.412Z,1007.03
2022-12-24T07:14:27.417Z,1006.96
2022-12-24T07:15:27.386Z,1006.97
2022-12-24T07:16:27.514Z,1007.06
2022-12-24T07:17:27.795Z,1007.06
2022-12-24T07:18:27.400Z,1007.11
2022-12-24T07:19:27.375Z,1007.11
2022-12-24T07:20:27.388Z,1007.06
2022-12-24T07:21:27.375Z,1007.11
2022-12-24T07:22:27.362Z,1007.09
2022-12-24T07:23:27.356Z,1007.13
2022-12-24T07:24:27.357Z,1007.13
2022-12-24T07:25:27.347Z,1007.18
2022-12-24T07:26:27.363Z,1007.16
2022-12-24T07:27:27.361Z,1007.15
2022-12-24T07:28:28.255Z,1007.20
2022-12-24T07:29:27.347Z,1007.19
2022-12-24T07:30:27.349Z,1007.20
2022-12-24T07:31:27.408Z,1007.21
2022-12-24T07:32:27.343Z,1007.19
2022-12-24T07:33:27.342Z,1007.19
2022-12-24T07:34:27.331Z,1007.22
2022-12-24T07:35:27.312Z,1007.25
2022-12-24T07:36:27.315Z,1007.28
2022-12-24T07:37:27.325Z,1007.26
2022-12-24T07:38:27.320Z,1007.29
2022-12-24T07:39:27.314Z,1007.30
2022-12-24T07:40:27.321Z,1007.31
2022-12-24T07:41:27.308Z,1007.34
2022-12-24T07:42:27.292Z,1007.35
2022-12-24T07:43:27.298Z,1007.40
2022-12-24T07:44:27.307Z,1007.37
2022-12-24T07:45:27.278Z,1007.42
2022-12-24T07:46:27.379Z,1007.46
2022-12-24T07:47:27.266Z,1007.46
2022-12-24T07:48:27.369Z,1007.49
2022-12-24T07:49:27.296Z,1007.47
2022-12-24T07:50:27.288Z,1007.52
2022-12-24T07:51:27.264Z,1007.47
2022-12-24T07:52:27.272Z,1007.50
2022-12-24T07:53:27.251Z,1007.54
2022-12-24T07:54:27.246Z,1007.52
2022-12-24T07:55:27.256Z,1007.51
2022-12-24T07:56:27.244Z,1007.50
2022-12-24T07:57:27.238Z,1007.51
2022-12-24T07:58:27.252Z,1007.54
2022-12-24T07:59:27.238Z,1007.52
2022-12-24T08:00:27.320Z,1007.52
2022-12-24T08:01:27.364Z,1007.54
2022-12-24T08:02:27.379Z,1007.52
2022-12-24T08:03:27.422Z,1007.57
2022-12-24T08:04:27.226Z,1007.55
2022-12-24T08:05:27.215Z,1007.58
2022-12-24T08:06:27.214Z,1007.57
2022-12-24T08:07:27.197Z,1007.61
2022-12-24T08:08:27.187Z,1007.67
2022-12-24T08:09:27.178Z,1007.67
2022-12-24T08:10:27.244Z,1007.67
2022-12-24T08:11:27.194Z,1007.68
2022-12-24T08:12:27.187Z,1007.66
2022-12-24T08:13:27.187Z,1007.69
2022-12-24T08:14:27.167Z,1007.73
2022-12-24T08:15:27.165Z,1007.76
2022-12-24T08:16:27.257Z,1007.78
2022-12-24T08:17:32.215Z,1007.85
2022-12-24T08:18:27.156Z,1007.79
2022-12-24T08:19:27.161Z,1007.76
2022-12-24T08:20:27.223Z,1007.74
2022-12-24T08:21:27.168Z,1007.72
2022-12-24T08:22:27.129Z,1007.74
2022-12-24T08:23:27.131Z,1007.75
2022-12-24T08:24:27.141Z,1007.72
2022-12-24T08:25:27.156Z,1007.78
2022-12-24T08:26:27.111Z,1007.79
2022-12-24T08:27:27.125Z,1007.80
2022-12-24T08:28:27.138Z,1007.82
2022-12-24T08:29:27.111Z,1007.82
2022-12-24T08:30:27.144Z,1007.81
2022-12-24T08:31:27.134Z,1007.80
2022-12-24T08:32:27.091Z,1007.81
2022-12-24T08:33:27.111Z,1007.79
2022-12-24T08:34:27.105Z,1007.79
2022-12-24T08:35:27.117Z,1007.85
2022-12-24T08:36:27.093Z,1007.83
2022-12-24T08:37:27.094Z,1007.82
2022-12-24T08:38:27.083Z,1007.85
2022-12-24T08:39:27.088Z,1007.89
2022-12-24T08:40:27.087Z,1007.90
2022-12-24T08:41:27.061Z,1007.87
2022-12-24T08:42:27.122Z,1007.89
2022-12-24T08:43:27.077Z,1007.88
2022-12-24T08:44:27.045Z,1007.93
2022-12-24T08:45:27.075Z,1007.93
2022-12-24T08:46:27.100Z,1007.92
2022-12-24T08:47:27.060Z,1007.97
2022-12-24T08:48:27.039Z,1007.95
2022-12-24T08:49:27.038Z,1007.98
2022-12-24T08:50:27.024Z,1008.00
2022-12-24T08:51:27.037Z,1007.99
2022-12-24T08:52:27.017Z,1007.96
2022-12-24T08:53:27.048Z,1008.01
2022-12-24T08:54:27.014Z,1007.96
2022-12-24T08:55:27.008Z,1008.00
2022-12-24T08:56:27.015Z,1007.93
2022-12-24T08:57:27.002Z,1007.95
2022-12-24T08:58:26.995Z,1007.97
2022-12-24T08:59:27.018Z,1007.96
2022-12-24T09:00:27.020Z,1008.02
2022-12-24T09:01:27.062Z,1007.96
2022-12-24T09:02:27.176Z,1007.99
2022-12-24T09:03:28.238Z,1007.98
2022-12-24T09:04:26.997Z,1008.03
2022-12-24T09:05:27.013Z,1008.05
2022-12-24T09:06:26.961Z,1008.09
2022-12-24T09:07:26.986Z,1008.16
2022-12-24T09:08:26.970Z,1008.21
2022-12-24T09:09:27.498Z,1008.16
2022-12-24T09:10:26.957Z,1008.19
2022-12-24T09:11:26.959Z,1008.20
2022-12-24T09:12:26.942Z,1008.16
2022-12-24T09:13:26.959Z,1008.18
2022-12-24T09:14:26.949Z,1008.22
2022-12-24T09:15:26.932Z,1008.28
2022-12-24T09:16:26.942Z,1008.30
2022-12-24T09:17:26.938Z,1008.33
2022-12-24T09:18:26.914Z,1008.29
2022-12-24T09:19:26.936Z,1008.30
2022-12-24T09:20:26.943Z,1008.38
2022-12-24T09:21:26.909Z,1008.34
2022-12-24T09:22:26.915Z,1008.39
2022-12-24T09:23:26.904Z,1008.40
2022-12-24T09:24:26.907Z,1008.42
2022-12-24T09:25:26.951Z,1008.44
2022-12-24T09:26:26.952Z,1008.49
2022-12-24T09:27:26.897Z,1008.49
2022-12-24T09:28:26.896Z,1008.46
2022-12-24T09:29:26.904Z,1008.51
2022-12-24T09:30:27.009Z,1008.54
2022-12-24T09:31:26.991Z,1008.57
2022-12-24T09:32:26.866Z,1008.57
2022-12-24T09:33:26.869Z,1008.56
2022-12-24T09:34:30.555Z,1008.63
2022-12-24T09:35:26.860Z,1008.64
2022-12-24T09:36:26.871Z,1008.67
2022-12-24T09:37:26.869Z,1008.69
2022-12-24T09:38:26.840Z,1008.71
2022-12-24T09:39:26.859Z,1008.75
2022-12-24T09:40:26.841Z,1008.77
2022-12-24T09:41:26.851Z,1008.81
2022-12-24T09:42:26.846Z,1008.84
2022-12-24T09:43:26.843Z,1008.87
2022-12-24T09:44:26.820Z,1008.91
2022-12-24T09:45:26.871Z,1008.91
2022-12-24T09:46:26.929Z,1008.94
2022-12-24T09:47:26.824Z,1008.92
2022-12-24T09:48:26.826Z,1008.90
2022-12-24T09:49:26.805Z,1008.96
2022-12-24T09:50:26.823Z,1008.94
2022-12-24T09:51:26.808Z,1008.94
2022-12-24T09:52:26.790Z,1008.90
2022-12-24T09:53:26.792Z,1008.88
2022-12-24T09:54:26.792Z,1008.86
2022-12-24T09:55:26.783Z,1008.93
2022-12-24T09:56:26.775Z,1008.95
2022-12-24T09:57:26.810Z,1008.93
2022-12-24T09:58:26.781Z,1008.96
2022-12-24T09:59:26.785Z,1008.97
2022-12-24T10:00:26.784Z,1008.96
2022-12-24T10:01:26.885Z,1008.99
2022-12-24T10:02:26.899Z,1008.94
2022-12-24T10:03:26.854Z,1008.99
2022-12-24T10:04:26.823Z,1009.03
2022-12-24T10:05:26.767Z,1009.00
2022-12-24T10:06:29.287Z,1009.02
2022-12-24T10:07:26.755Z,1009.05
2022-12-24T10:08:26.725Z,1009.02
2022-12-24T10:09:26.728Z,1009.03
2022-12-24T10:10:26.723Z,1009.06
2022-12-24T10:11:26.734Z,1009.08
2022-12-24T10:12:26.721Z,1009.08
2022-12-24T10:13:26.747Z,1009.12
2022-12-24T10:14:26.718Z,1009.09
2022-12-24T10:15:26.732Z,1009.14
2022-12-24T10:16:26.742Z,1009.13
2022-12-24T10:17:26.716Z,1009.14
2022-12-24T10:18:26.716Z,1009.18
2022-12-24T10:19:26.707Z,1009.13
2022-12-24T10:20:26.693Z,1009.10
2022-12-24T10:21:26.726Z,1009.13
2022-12-24T10:22:26.675Z,1009.11
2022-12-24T10:23:26.675Z,1009.11
2022-12-24T10:24:26.687Z,1009.09
2022-12-24T10:25:26.667Z,1009.09
2022-12-24T10:26:26.686Z,1009.11
2022-12-24T10:27:26.692Z,1009.12
2022-12-24T10:28:26.649Z,1009.10
2022-12-24T10:29:26.702Z,1009.11
2022-12-24T10:30:26.716Z,1009.16
2022-12-24T10:31:26.750Z,1009.10
2022-12-24T10:32:26.649Z,1009.13
2022-12-24T10:33:26.663Z,1009.17
2022-12-24T10:34:26.650Z,1009.16
2022-12-24T10:35:26.646Z,1009.18
2022-12-24T10:36:26.636Z,1009.16
2022-12-24T10:37:26.630Z,1009.19
2022-12-24T10:38:26.617Z,1009.21
2022-12-24T10:39:26.637Z,1009.15
2022-12-24T10:40:26.621Z,1009.12
2022-12-24T10:41:26.653Z,1009.17
2022-12-24T10:42:26.613Z,1009.20
2022-12-24T10:43:26.600Z,1009.18
2022-12-24T10:44:26.606Z,1009.15
2022-12-24T10:45:26.609Z,1009.18
2022-12-24T10:46:26.638Z,1009.13
2022-12-24T10:47:26.610Z,1009.12
2022-12-24T10:48:26.587Z,1009.14
2022-12-24T10:49:26.581Z,1009.13
2022-12-24T10:50:26.583Z,1009.11
2022-12-24T10:51:26.580Z,1009.15
2022-12-24T10:52:26.574Z,1009.13
2022-12-24T10:53:26.564Z,1009.14
2022-12-24T10:54:27.792Z,1009.11
2022-12-24T10:55:26.560Z,1009.08
2022-12-24T10:56:26.566Z,1009.05
2022-12-24T10:57:26.570Z,1009.03
2022-12-24T10:58:26.554Z,1009.10
2022-12-24T10:59:26.541Z,1009.07
2022-12-24T11:00:31.904Z,1009.03
2022-12-24T11:01:26.712Z,1008.95
2022-12-24T11:02:26.800Z,1009.00
2022-12-24T11:03:26.570Z,1008.99
2022-12-24T11:04:26.520Z,1009.01
2022-12-24T11:05:26.517Z,1008.99
2022-12-24T11:06:26.508Z,1009.06
2022-12-24T11:07:26.507Z,1009.10
2022-12-24T11:08:26.501Z,1009.05
2022-12-24T11:09:26.537Z,1009.10
2022-12-24T11:10:26.510Z,1009.08
2022-12-24T11:11:26.520Z,1009.14
2022-12-24T11:12:26.500Z,1009.12
2022-12-24T11:13:41.690Z,1009.10
2022-12-24T11:14:26.493Z,1009.11
2022-12-24T11:15:26.558Z,1009.18
2022-12-24T11:16:26.508Z,1009.16
2022-12-24T11:17:26.488Z,1009.08
2022-12-24T11:18:26.483Z,1009.11
2022-12-24T11:19:26.481Z,1009.11
2022-12-24T11:20:26.476Z,1009.11
2022-12-24T11:21:26.462Z,1009.18
2022-12-24T11:22:26.464Z,1009.12
2022-12-24T11:23:26.468Z,1009.10
2022-12-24T11:24:26.457Z,1009.10
2022-12-24T11:25:26.467Z,1009.05
2022-12-24T11:26:26.442Z,1009.07
2022-12-24T11:27:26.452Z,1009.02
2022-12-24T11:28:26.440Z,1008.99
2022-12-24T11:29:26.442Z,1009.02
2022-12-24T11:30:26.420Z,1009.05
2022-12-24T11:31:26.453Z,1009.08
2022-12-24T11:32:26.420Z,1009.09
2022-12-24T11:33:26.461Z,1009.05
2022-12-24T11:34:26.406Z,1009.08
2022-12-24T11:35:26.478Z,1009.09
2022-12-24T11:36:26.396Z,1009.10
2022-12-24T11:37:26.407Z,1009.04
2022-12-24T11:38:26.407Z,1009.07
2022-12-24T11:39:26.398Z,1009.06
2022-12-24T11:40:26.383Z,1009.12
2022-12-24T11:41:26.399Z,1009.07
2022-12-24T11:42:26.405Z,1009.06
2022-12-24T11:43:26.374Z,1009.05
2022-12-24T11:44:26.394Z,1009.08
2022-12-24T11:45:26.377Z,1009.09
2022-12-24T11:46:26.378Z,1009.15
2022-12-24T11:47:26.359Z,1009.11
2022-12-24T11:48:26.356Z,1009.09
2022-12-24T11:49:26.387Z,1009.06
2022-12-24T11:50:26.353Z,1009.09
2022-12-24T11:51:26.355Z,1009.08
2022-12-24T11:52:26.362Z,1009.10
2022-12-24T11:53:26.367Z,1009.04
2022-12-24T11:54:26.360Z,1009.07
2022-12-24T11:55:26.333Z,1009.06
2022-12-24T11:56:26.347Z,1009.00
2022-12-24T11:57:26.354Z,1009.00
2022-12-24T11:58:26.346Z,1009.04
2022-12-24T11:59:26.345Z,1009.04
2022-12-24T12:00:26.325Z,1009.03
2022-12-24T12:01:26.324Z,1009.01
2022-12-24T12:02:26.370Z,1009.09
2022-12-24T12:03:26.371Z,1009.05
2022-12-24T12:04:26.309Z,1009.07
2022-12-24T12:05:26.350Z,1009.06